sensor_id;sensor_type;location;lat;lon;timestamp;pressure;altitude;pressure_sealevel;temperature;humidity
21236;BME280;10775;42.678;26.324;2023-04-22T00:00:12;98414.06;;;10.34;100.00
21236;BME280;10775;42.678;26.324;2023-04-22T00:02:38;98411.25;;;10.41;100.00
21236;BME280;10775;42.678;26.324;2023-04-22T00:05:04;98424.19;;;10.48;100.00
21236;BME280;10775;42.678;26.324;2023-04-22T00:07:31;98420.88;;;10.39;100.00
21236;BME280;10775;42.678;26.324;2023-04-22T00:09:56;98420.63;;;10.50;100.00
21236;BME280;10775;42.678;26.324;2023-04-22T00:12:22;98424.06;;;10.52;100.00
21236;BME280;10775;42.678;26.324;2023-04-22T00:14:48;98405.44;;;10.27;100.00
21236;BME280;10775;42.678;26.324;2023-04-22T00:17:13;98421.53;;;10.10;100.00
21236;BME280;10775;42.678;26.324;2023-04-22T00:19:40;98425.41;;;9.91;100.00
21236;BME280;10775;42.678;26.324;2023-04-22T00:22:05;98427.69;;;10.08;100.00
21236;BME280;10775;42.678;26.324;2023-04-22T00:24:31;98428.72;;;9.99;100.00
21236;BME280;10775;42.678;26.324;2023-04-22T00:26:57;98429.19;;;9.76;100.00
21236;BME280;10775;42.678;26.324;2023-04-22T00:29:23;98427.13;;;9.92;100.00
21236;BME280;10775;42.678;26.324;2023-04-22T00:31:49;98429.63;;;9.98;100.00
21236;BME280;10775;42.678;26.324;2023-04-22T00:34:14;98421.81;;;9.96;100.00
21236;BME280;10775;42.678;26.324;2023-04-22T00:36:42;98424.91;;;10.15;100.00
21236;BME280;10775;42.678;26.324;2023-04-22T00:39:07;98420.69;;;10.08;100.00
21236;BME280;10775;42.678;26.324;2023-04-22T00:41:33;98430.91;;;10.19;100.00
21236;BME280;10775;42.678;26.324;2023-04-22T00:43:59;98424.16;;;10.10;100.00
21236;BME280;10775;42.678;26.324;2023-04-22T00:46:25;98429.53;;;10.02;100.00
21236;BME280;10775;42.678;26.324;2023-04-22T00:48:51;98433.41;;;9.85;100.00
21236;BME280;10775;42.678;26.324;2023-04-22T00:51:17;98421.09;;;9.90;100.00
21236;BME280;10775;42.678;26.324;2023-04-22T00:53:42;98421.13;;;9.88;100.00
21236;BME280;10775;42.678;26.324;2023-04-22T00:56:08;98427.34;;;9.83;100.00
21236;BME280;10775;42.678;26.324;2023-04-22T00:58:35;98420.72;;;10.07;100.00
21236;BME280;10775;42.678;26.324;2023-04-22T01:01:01;98420.59;;;10.13;100.00
21236;BME280;10775;42.678;26.324;2023-04-22T01:03:26;98417.91;;;10.16;100.00
21236;BME280;10775;42.678;26.324;2023-04-22T01:05:54;98417.09;;;10.14;100.00
21236;BME280;10775;42.678;26.324;2023-04-22T01:08:20;98424.16;;;10.09;100.00
21236;BME280;10775;42.678;26.324;2023-04-22T01:10:46;98417.75;;;10.23;100.00
21236;BME280;10775;42.678;26.324;2023-04-22T01:13:11;98411.00;;;10.13;100.00
21236;BME280;10775;42.678;26.324;2023-04-22T01:15:37;98415.31;;;10.16;100.00
21236;BME280;10775;42.678;26.324;2023-04-22T01:18:03;98412.88;;;10.07;100.00
21236;BME280;10775;42.678;26.324;2023-04-22T01:20:28;98413.13;;;9.96;100.00
21236;BME280;10775;42.678;26.324;2023-04-22T01:22:55;98408.69;;;9.99;100.00
21236;BME280;10775;42.678;26.324;2023-04-22T01:25:22;98412.09;;;10.03;100.00
21236;BME280;10775;42.678;26.324;2023-04-22T01:27:48;98406.97;;;9.98;100.00
21236;BME280;10775;42.678;26.324;2023-04-22T01:30:14;98409.50;;;10.03;100.00
21236;BME280;10775;42.678;26.324;2023-04-22T01:32:40;98406.28;;;9.90;100.00
21236;BME280;10775;42.678;26.324;2023-04-22T01:35:06;98403.41;;;10.02;100.00
21236;BME280;10775;42.678;26.324;2023-04-22T01:37:33;98406.22;;;9.93;100.00
21236;BME280;10775;42.678;26.324;2023-04-22T01:39:59;98405.63;;;9.80;100.00
21236;BME280;10775;42.678;26.324;2023-04-22T01:42:25;98407.16;;;9.49;100.00
21236;BME280;10775;42.678;26.324;2023-04-22T01:44:50;98406.53;;;9.36;100.00
21236;BME280;10775;42.678;26.324;2023-04-22T01:47:16;98398.72;;;9.36;100.00
21236;BME280;10775;42.678;26.324;2023-04-22T01:49:41;98400.03;;;9.57;100.00
21236;BME280;10775;42.678;26.324;2023-04-22T01:52:07;98400.69;;;9.67;100.00
21236;BME280;10775;42.678;26.324;2023-04-22T01:54:32;98402.47;;;9.65;100.00
21236;BME280;10775;42.678;26.324;2023-04-22T01:56:58;98406.22;;;9.51;100.00
21236;BME280;10775;42.678;26.324;2023-04-22T01:59:23;98407.75;;;9.62;100.00
21236;BME280;10775;42.678;26.324;2023-04-22T02:01:49;98399.63;;;9.77;100.00
21236;BME280;10775;42.678;26.324;2023-04-22T02:04:14;98394.22;;;9.85;100.00
21236;BME280;10775;42.678;26.324;2023-04-22T02:06:40;98399.66;;;9.74;100.00
21236;BME280;10775;42.678;26.324;2023-04-22T02:09:05;98390.19;;;9.70;100.00
21236;BME280;10775;42.678;26.324;2023-04-22T02:11:31;98395.59;;;9.61;100.00
21236;BME280;10775;42.678;26.324;2023-04-22T02:13:57;98391.03;;;9.72;100.00
21236;BME280;10775;42.678;26.324;2023-04-22T02:16:22;98394.75;;;9.58;100.00
21236;BME280;10775;42.678;26.324;2023-04-22T02:18:48;98384.06;;;9.71;100.00
21236;BME280;10775;42.678;26.324;2023-04-22T02:21:14;98383.66;;;9.89;100.00
21236;BME280;10775;42.678;26.324;2023-04-22T02:23:40;98387.84;;;9.98;100.00
21236;BME280;10775;42.678;26.324;2023-04-22T02:26:06;98377.69;;;9.84;100.00
21236;BME280;10775;42.678;26.324;2023-04-22T02:28:32;98383.69;;;9.47;100.00
21236;BME280;10775;42.678;26.324;2023-04-22T02:30:58;98380.44;;;9.76;100.00
21236;BME280;10775;42.678;26.324;2023-04-22T02:33:23;98385.31;;;9.95;100.00
21236;BME280;10775;42.678;26.324;2023-04-22T02:35:49;98379.94;;;10.01;100.00
21236;BME280;10775;42.678;26.324;2023-04-22T02:38:14;98380.66;;;10.08;100.00
21236;BME280;10775;42.678;26.324;2023-04-22T02:40:40;98379.94;;;10.01;100.00
21236;BME280;10775;42.678;26.324;2023-04-22T02:43:06;98380.88;;;9.97;100.00
21236;BME280;10775;42.678;26.324;2023-04-22T02:45:31;98383.78;;;9.85;100.00
21236;BME280;10775;42.678;26.324;2023-04-22T02:47:56;98380.38;;;9.81;100.00
21236;BME280;10775;42.678;26.324;2023-04-22T02:50:22;98373.28;;;9.88;100.00
21236;BME280;10775;42.678;26.324;2023-04-22T02:52:47;98380.88;;;9.97;100.00
21236;BME280;10775;42.678;26.324;2023-04-22T02:55:13;98382.91;;;9.84;100.00
21236;BME280;10775;42.678;26.324;2023-04-22T02:57:38;98383.13;;;9.73;100.00
21236;BME280;10775;42.678;26.324;2023-04-22T03:00:04;98386.16;;;9.53;100.00
21236;BME280;10775;42.678;26.324;2023-04-22T03:02:30;98393.75;;;9.66;100.00
21236;BME280;10775;42.678;26.324;2023-04-22T03:04:55;98376.31;;;9.68;100.00
21236;BME280;10775;42.678;26.324;2023-04-22T03:07:21;98385.75;;;9.73;100.00
21236;BME280;10775;42.678;26.324;2023-04-22T03:09:46;98384.00;;;9.74;100.00
21236;BME280;10775;42.678;26.324;2023-04-22T03:12:12;98399.19;;;9.53;100.00
21236;BME280;10775;42.678;26.324;2023-04-22T03:14:37;98391.53;;;9.46;100.00
21236;BME280;10775;42.678;26.324;2023-04-22T03:17:03;98397.81;;;9.35;100.00
21236;BME280;10775;42.678;26.324;2023-04-22T03:19:28;98396.03;;;9.39;100.00
21236;BME280;10775;42.678;26.324;2023-04-22T03:21:53;98397.63;;;9.46;100.00
21236;BME280;10775;42.678;26.324;2023-04-22T03:24:20;98391.22;;;9.61;100.00
21236;BME280;10775;42.678;26.324;2023-04-22T03:26:46;98392.81;;;9.68;100.00
21236;BME280;10775;42.678;26.324;2023-04-22T03:29:11;98397.00;;;9.77;100.00
21236;BME280;10775;42.678;26.324;2023-04-22T04:52:08;98455.72;;;10.40;100.00
21236;BME280;10775;42.678;26.324;2023-04-22T04:54:36;98458.38;;;10.38;100.00
21236;BME280;10775;42.678;26.324;2023-04-22T04:57:01;98460.66;;;10.54;100.00
21236;BME280;10775;42.678;26.324;2023-04-22T04:59:27;98462.09;;;10.65;100.00
21236;BME280;10775;42.678;26.324;2023-04-22T05:01:53;98457.22;;;10.87;100.00
21236;BME280;10775;42.678;26.324;2023-04-22T05:04:19;98461.22;;;11.02;100.00
21236;BME280;10775;42.678;26.324;2023-04-22T05:06:44;98460.97;;;11.12;100.00
21236;BME280;10775;42.678;26.324;2023-04-22T05:09:10;98454.53;;;11.25;100.00
21236;BME280;10775;42.678;26.324;2023-04-22T05:11:35;98462.66;;;11.47;100.00
21236;BME280;10775;42.678;26.324;2023-04-22T05:14:01;98457.50;;;11.75;100.00
21236;BME280;10775;42.678;26.324;2023-04-22T05:16:27;98452.72;;;11.91;100.00
21236;BME280;10775;42.678;26.324;2023-04-22T05:18:53;98457.75;;;11.99;100.00
21236;BME280;10775;42.678;26.324;2023-04-22T05:21:18;98460.47;;;11.95;100.00
21236;BME280;10775;42.678;26.324;2023-04-22T05:23:44;98462.94;;;12.00;100.00
21236;BME280;10775;42.678;26.324;2023-04-22T05:26:10;98464.38;;;12.12;100.00
21236;BME280;10775;42.678;26.324;2023-04-22T05:28:35;98464.59;;;12.04;98.29
21236;BME280;10775;42.678;26.324;2023-04-22T05:31:01;98469.78;;;12.06;98.85
21236;BME280;10775;42.678;26.324;2023-04-22T05:33:26;98473.31;;;12.05;98.81
21236;BME280;10775;42.678;26.324;2023-04-22T05:35:52;98478.00;;;12.23;100.00
21236;BME280;10775;42.678;26.324;2023-04-22T05:38:17;98469.47;;;12.45;100.00
21236;BME280;10775;42.678;26.324;2023-04-22T05:40:43;98477.19;;;12.49;99.63
21236;BME280;10775;42.678;26.324;2023-04-22T05:43:08;98482.91;;;12.62;99.35
21236;BME280;10775;42.678;26.324;2023-04-22T05:45:34;98491.31;;;12.73;99.23
21236;BME280;10775;42.678;26.324;2023-04-22T05:47:59;98484.41;;;12.71;98.08
21236;BME280;10775;42.678;26.324;2023-04-22T05:50:25;98486.31;;;12.66;97.24
21236;BME280;10775;42.678;26.324;2023-04-22T05:52:50;98483.69;;;12.66;97.57
21236;BME280;10775;42.678;26.324;2023-04-22T05:55:16;98484.91;;;12.55;96.69
21236;BME280;10775;42.678;26.324;2023-04-22T05:57:41;98481.16;;;12.62;98.32
21236;BME280;10775;42.678;26.324;2023-04-22T06:00:07;98480.16;;;12.67;98.56
21236;BME280;10775;42.678;26.324;2023-04-22T06:02:33;98488.78;;;12.70;98.29
21236;BME280;10775;42.678;26.324;2023-04-22T06:04:59;98489.34;;;12.80;97.79
21236;BME280;10775;42.678;26.324;2023-04-22T06:07:24;98491.88;;;12.83;97.22
21236;BME280;10775;42.678;26.324;2023-04-22T06:09:50;98494.41;;;12.86;97.14
21236;BME280;10775;42.678;26.324;2023-04-22T06:12:15;98496.03;;;12.90;94.70
21236;BME280;10775;42.678;26.324;2023-04-22T06:14:41;98487.28;;;12.90;96.12
21236;BME280;10775;42.678;26.324;2023-04-22T06:17:06;98500.88;;;13.02;96.27
21236;BME280;10775;42.678;26.324;2023-04-22T06:19:34;98502.88;;;13.21;95.17
21236;BME280;10775;42.678;26.324;2023-04-22T06:21:59;98502.72;;;13.27;94.24
21236;BME280;10775;42.678;26.324;2023-04-22T06:24:25;98500.97;;;13.26;94.51
21236;BME280;10775;42.678;26.324;2023-04-22T06:26:50;98499.16;;;13.30;93.89
21236;BME280;10775;42.678;26.324;2023-04-22T06:29:16;98511.31;;;13.32;93.29
21236;BME280;10775;42.678;26.324;2023-04-22T06:31:41;98515.84;;;13.27;93.63
21236;BME280;10775;42.678;26.324;2023-04-22T06:34:06;98514.41;;;13.17;91.53
21236;BME280;10775;42.678;26.324;2023-04-22T06:36:32;98519.03;;;13.09;93.42
21236;BME280;10775;42.678;26.324;2023-04-22T06:39:02;98520.56;;;13.16;94.15
21236;BME280;10775;42.678;26.324;2023-04-22T06:41:29;98525.69;;;13.19;92.46
21236;BME280;10775;42.678;26.324;2023-04-22T06:43:55;98533.69;;;13.16;93.64
21236;BME280;10775;42.678;26.324;2023-04-22T06:46:20;98536.31;;;13.16;93.59
21236;BME280;10775;42.678;26.324;2023-04-22T06:48:46;98533.53;;;12.94;93.27
21236;BME280;10775;42.678;26.324;2023-04-22T06:51:11;98540.94;;;12.81;93.93
21236;BME280;10775;42.678;26.324;2023-04-22T06:53:37;98544.06;;;12.64;93.91
21236;BME280;10775;42.678;26.324;2023-04-22T06:56:03;98546.06;;;12.56;94.45
21236;BME280;10775;42.678;26.324;2023-04-22T06:58:28;98549.53;;;12.56;95.13
21236;BME280;10775;42.678;26.324;2023-04-22T07:00:54;98544.81;;;12.68;94.60
21236;BME280;10775;42.678;26.324;2023-04-22T07:03:19;98541.47;;;12.62;92.69
21236;BME280;10775;42.678;26.324;2023-04-22T07:05:45;98546.91;;;12.84;94.71
21236;BME280;10775;42.678;26.324;2023-04-22T07:08:12;98553.47;;;12.99;93.45
21236;BME280;10775;42.678;26.324;2023-04-22T07:10:38;98555.28;;;13.24;93.92
21236;BME280;10775;42.678;26.324;2023-04-22T07:13:03;98558.25;;;13.41;90.38
21236;BME280;10775;42.678;26.324;2023-04-22T07:15:29;98559.88;;;13.45;91.37
21236;BME280;10775;42.678;26.324;2023-04-22T07:17:54;98562.38;;;13.22;87.11
21236;BME280;10775;42.678;26.324;2023-04-22T07:20:20;98565.41;;;13.08;89.85
21236;BME280;10775;42.678;26.324;2023-04-22T07:22:45;98565.03;;;13.20;89.44
21236;BME280;10775;42.678;26.324;2023-04-22T07:25:11;98565.47;;;13.35;90.69
21236;BME280;10775;42.678;26.324;2023-04-22T07:27:37;98566.31;;;13.62;91.36
21236;BME280;10775;42.678;26.324;2023-04-22T07:30:04;98564.13;;;13.75;88.28
21236;BME280;10775;42.678;26.324;2023-04-22T07:32:30;98566.44;;;13.84;89.19
21236;BME280;10775;42.678;26.324;2023-04-22T07:34:55;98556.19;;;13.76;86.27
21236;BME280;10775;42.678;26.324;2023-04-22T07:37:21;98571.16;;;13.74;85.94
21236;BME280;10775;42.678;26.324;2023-04-22T07:39:46;98562.31;;;13.77;89.07
21236;BME280;10775;42.678;26.324;2023-04-22T07:42:12;98567.88;;;13.67;85.71
21236;BME280;10775;42.678;26.324;2023-04-22T07:44:37;98559.97;;;13.67;87.79
21236;BME280;10775;42.678;26.324;2023-04-22T07:47:03;98572.53;;;13.84;88.33
21236;BME280;10775;42.678;26.324;2023-04-22T07:49:29;98568.38;;;13.79;85.75
21236;BME280;10775;42.678;26.324;2023-04-22T07:51:55;98568.66;;;13.96;88.01
21236;BME280;10775;42.678;26.324;2023-04-22T07:54:21;98569.63;;;14.17;86.57
21236;BME280;10775;42.678;26.324;2023-04-22T07:56:46;98567.00;;;14.17;86.67
21236;BME280;10775;42.678;26.324;2023-04-22T07:59:12;98575.63;;;14.21;85.53
21236;BME280;10775;42.678;26.324;2023-04-22T08:01:37;98559.69;;;14.25;85.46
21236;BME280;10775;42.678;26.324;2023-04-22T08:04:03;98563.69;;;14.35;84.42
21236;BME280;10775;42.678;26.324;2023-04-22T08:06:28;98570.56;;;14.40;85.46
21236;BME280;10775;42.678;26.324;2023-04-22T08:08:54;98576.16;;;14.55;84.95
21236;BME280;10775;42.678;26.324;2023-04-22T08:11:19;98569.91;;;14.58;84.22
21236;BME280;10775;42.678;26.324;2023-04-22T08:13:45;98583.88;;;14.60;84.52
21236;BME280;10775;42.678;26.324;2023-04-22T08:16:10;98585.09;;;14.50;83.76
21236;BME280;10775;42.678;26.324;2023-04-22T08:18:36;98593.44;;;14.38;84.21
21236;BME280;10775;42.678;26.324;2023-04-22T08:21:01;98586.72;;;14.54;83.09
21236;BME280;10775;42.678;26.324;2023-04-22T08:23:27;98593.63;;;14.56;83.27
21236;BME280;10775;42.678;26.324;2023-04-22T08:25:52;98592.31;;;14.68;83.51
21236;BME280;10775;42.678;26.324;2023-04-22T08:28:18;98586.31;;;14.65;82.44
21236;BME280;10775;42.678;26.324;2023-04-22T08:30:43;98591.28;;;14.72;83.66
21236;BME280;10775;42.678;26.324;2023-04-22T08:33:10;98582.91;;;14.85;83.13
21236;BME280;10775;42.678;26.324;2023-04-22T08:35:36;98594.28;;;14.85;83.19
21236;BME280;10775;42.678;26.324;2023-04-22T08:38:02;98583.28;;;14.97;82.98
21236;BME280;10775;42.678;26.324;2023-04-22T08:40:28;98593.00;;;14.95;81.83
21236;BME280;10775;42.678;26.324;2023-04-22T08:42:53;98594.03;;;14.44;83.08
21236;BME280;10775;42.678;26.324;2023-04-22T08:45:20;98596.22;;;14.58;84.21
21236;BME280;10775;42.678;26.324;2023-04-22T08:47:47;98597.13;;;14.81;83.19
21236;BME280;10775;42.678;26.324;2023-04-22T08:50:13;98591.63;;;15.09;82.96
21236;BME280;10775;42.678;26.324;2023-04-22T08:52:41;98593.28;;;15.33;81.48
21236;BME280;10775;42.678;26.324;2023-04-22T08:55:07;98594.25;;;15.53;81.07
21236;BME280;10775;42.678;26.324;2023-04-22T08:57:35;98584.50;;;15.55;80.35
21236;BME280;10775;42.678;26.324;2023-04-22T09:00:01;98584.38;;;15.36;80.53
21236;BME280;10775;42.678;26.324;2023-04-22T09:02:30;98584.25;;;15.39;81.01
21236;BME280;10775;42.678;26.324;2023-04-22T09:04:57;98584.06;;;15.43;79.58
21236;BME280;10775;42.678;26.324;2023-04-22T09:07:24;98583.78;;;15.07;79.58
21236;BME280;10775;42.678;26.324;2023-04-22T09:09:52;98586.50;;;14.60;80.18
21236;BME280;10775;42.678;26.324;2023-04-22T09:12:19;98589.16;;;14.59;82.32
21236;BME280;10775;42.678;26.324;2023-04-22T09:14:45;98586.00;;;14.72;81.85
21236;BME280;10775;42.678;26.324;2023-04-22T09:17:10;98588.16;;;14.63;80.81
21236;BME280;10775;42.678;26.324;2023-04-22T09:19:39;98576.78;;;14.84;80.53
21236;BME280;10775;42.678;26.324;2023-04-22T09:22:04;98580.91;;;14.91;79.66
21236;BME280;10775;42.678;26.324;2023-04-22T09:24:29;98569.50;;;15.13;80.31
21236;BME280;10775;42.678;26.324;2023-04-22T09:26:55;98571.84;;;15.42;79.21
21236;BME280;10775;42.678;26.324;2023-04-22T09:29:28;98572.56;;;15.66;79.10
21236;BME280;10775;42.678;26.324;2023-04-22T09:31:54;98576.47;;;15.80;77.51
21236;BME280;10775;42.678;26.324;2023-04-22T09:34:20;98564.69;;;15.87;75.93
21236;BME280;10775;42.678;26.324;2023-04-22T09:36:49;98567.88;;;15.95;75.68
21236;BME280;10775;42.678;26.324;2023-04-22T09:39:15;98557.72;;;16.84;74.44
21236;BME280;10775;42.678;26.324;2023-04-22T09:41:40;98563.94;;;17.55;72.79
21236;BME280;10775;42.678;26.324;2023-04-22T09:44:13;98562.47;;;17.67;68.55
21236;BME280;10775;42.678;26.324;2023-04-22T09:46:41;98551.13;;;18.33;68.51
21236;BME280;10775;42.678;26.324;2023-04-22T09:49:06;98552.38;;;18.59;66.49
21236;BME280;10775;42.678;26.324;2023-04-22T09:51:32;98553.13;;;18.61;65.08
21236;BME280;10775;42.678;26.324;2023-04-22T09:54:05;98544.50;;;18.74;64.79
21236;BME280;10775;42.678;26.324;2023-04-22T09:56:51;98543.72;;;18.56;65.52
21236;BME280;10775;42.678;26.324;2023-04-22T09:59:24;98540.22;;;18.55;65.35
21236;BME280;10775;42.678;26.324;2023-04-22T10:01:58;98538.00;;;18.47;63.53
21236;BME280;10775;42.678;26.324;2023-04-22T10:04:25;98532.19;;;18.41;65.05
21236;BME280;10775;42.678;26.324;2023-04-22T10:06:52;98530.91;;;18.48;64.11
21236;BME280;10775;42.678;26.324;2023-04-22T10:09:19;98527.59;;;18.60;63.87
21236;BME280;10775;42.678;26.324;2023-04-22T10:11:47;98530.16;;;18.46;64.19
21236;BME280;10775;42.678;26.324;2023-04-22T10:14:12;98528.47;;;18.28;65.44
21236;BME280;10775;42.678;26.324;2023-04-22T10:16:39;98522.13;;;18.14;63.30
21236;BME280;10775;42.678;26.324;2023-04-22T10:19:06;98533.84;;;17.75;65.71
21236;BME280;10775;42.678;26.324;2023-04-22T10:21:33;98526.38;;;17.66;67.43
21236;BME280;10775;42.678;26.324;2023-04-22T10:23:59;98527.53;;;17.43;67.99
21236;BME280;10775;42.678;26.324;2023-04-22T10:26:41;98529.78;;;17.68;68.01
21236;BME280;10775;42.678;26.324;2023-04-22T10:29:11;98523.88;;;17.11;66.96
21236;BME280;10775;42.678;26.324;2023-04-22T10:31:37;98521.31;;;17.27;69.68
21236;BME280;10775;42.678;26.324;2023-04-22T10:34:14;98515.28;;;17.59;69.31
21236;BME280;10775;42.678;26.324;2023-04-22T10:39:18;98523.19;;;17.25;67.42
21236;BME280;10775;42.678;26.324;2023-04-22T10:41:55;98513.97;;;16.97;69.16
21236;BME280;10775;42.678;26.324;2023-04-22T10:44:21;98511.38;;;16.78;69.76
21236;BME280;10775;42.678;26.324;2023-04-22T10:49:20;98531.09;;;15.92;74.43
21236;BME280;10775;42.678;26.324;2023-04-22T10:59:28;98519.00;;;15.25;66.90
21236;BME280;10775;42.678;26.324;2023-04-22T11:01:53;98514.03;;;15.60;68.50
21236;BME280;10775;42.678;26.324;2023-04-22T11:04:21;98521.91;;;15.39;63.32
21236;BME280;10775;42.678;26.324;2023-04-22T11:09:59;98520.97;;;15.40;60.64
21236;BME280;10775;42.678;26.324;2023-04-22T11:17:38;98527.88;;;15.85;58.87
21236;BME280;10775;42.678;26.324;2023-04-22T11:20:05;98527.28;;;15.79;55.89
21236;BME280;10775;42.678;26.324;2023-04-22T11:22:40;98527.28;;;15.79;56.51
21236;BME280;10775;42.678;26.324;2023-04-22T11:25:06;98522.28;;;15.93;56.25
21236;BME280;10775;42.678;26.324;2023-04-22T11:27:34;98514.09;;;15.99;55.36
21236;BME280;10775;42.678;26.324;2023-04-22T11:32:26;98511.59;;;15.96;54.78
21236;BME280;10775;42.678;26.324;2023-04-22T11:34:52;98501.19;;;16.12;54.66
21236;BME280;10775;42.678;26.324;2023-04-22T11:37:18;98504.63;;;16.33;54.00
21236;BME280;10775;42.678;26.324;2023-04-22T11:39:43;98491.31;;;16.55;52.87
21236;BME280;10775;42.678;26.324;2023-04-22T11:42:14;98506.22;;;16.75;51.62
21236;BME280;10775;42.678;26.324;2023-04-22T11:44:43;98499.00;;;16.98;51.45
21236;BME280;10775;42.678;26.324;2023-04-22T11:47:09;98493.56;;;17.01;48.74
21236;BME280;10775;42.678;26.324;2023-04-22T11:49:35;98498.75;;;17.02;47.56
21236;BME280;10775;42.678;26.324;2023-04-22T11:52:00;98500.53;;;17.02;45.97
21236;BME280;10775;42.678;26.324;2023-04-22T11:56:55;98498.47;;;17.43;46.87
21236;BME280;10775;42.678;26.324;2023-04-22T11:59:23;98498.31;;;17.81;46.34
21236;BME280;10775;42.678;26.324;2023-04-22T12:01:50;98494.75;;;17.82;46.55
21236;BME280;10775;42.678;26.324;2023-04-22T12:04:16;98492.41;;;17.93;48.42
21236;BME280;10775;42.678;26.324;2023-04-22T12:06:41;98486.94;;;17.96;48.30
21236;BME280;10775;42.678;26.324;2023-04-22T12:09:07;98489.34;;;18.01;48.60
21236;BME280;10775;42.678;26.324;2023-04-22T12:11:32;98482.16;;;18.20;48.88
21236;BME280;10775;42.678;26.324;2023-04-22T12:14:04;98478.50;;;18.39;48.37
21236;BME280;10775;42.678;26.324;2023-04-22T12:16:39;98480.72;;;18.46;49.28
21236;BME280;10775;42.678;26.324;2023-04-22T12:19:04;98474.88;;;18.40;46.20
21236;BME280;10775;42.678;26.324;2023-04-22T12:21:30;98474.63;;;18.29;44.90
21236;BME280;10775;42.678;26.324;2023-04-22T12:24:01;98484.25;;;18.14;43.91
21236;BME280;10775;42.678;26.324;2023-04-22T12:26:30;98482.38;;;18.00;42.33
21236;BME280;10775;42.678;26.324;2023-04-22T12:28:57;98485.16;;;17.97;42.72
21236;BME280;10775;42.678;26.324;2023-04-22T12:31:23;98484.09;;;17.84;42.55
21236;BME280;10775;42.678;26.324;2023-04-22T12:33:49;98473.72;;;17.79;47.75
21236;BME280;10775;42.678;26.324;2023-04-22T12:36:15;98486.66;;;17.50;44.47
21236;BME280;10775;42.678;26.324;2023-04-22T12:38:41;98486.28;;;17.41;44.74
21236;BME280;10775;42.678;26.324;2023-04-22T12:41:07;98477.44;;;17.59;46.59
21236;BME280;10775;42.678;26.324;2023-04-22T12:43:33;98483.00;;;17.53;46.92
21236;BME280;10775;42.678;26.324;2023-04-22T12:46:01;98488.06;;;17.57;47.97
21236;BME280;10775;42.678;26.324;2023-04-22T12:48:27;98480.53;;;17.67;47.42
21236;BME280;10775;42.678;26.324;2023-04-22T12:50:52;98472.03;;;17.78;46.67
21236;BME280;10775;42.678;26.324;2023-04-22T12:53:20;98480.13;;;17.92;52.65
21236;BME280;10775;42.678;26.324;2023-04-22T12:55:45;98468.16;;;17.85;53.42
21236;BME280;10775;42.678;26.324;2023-04-22T12:58:12;98469.59;;;17.73;55.91
21236;BME280;10775;42.678;26.324;2023-04-22T13:00:38;98472.25;;;17.73;50.98
21236;BME280;10775;42.678;26.324;2023-04-22T13:03:04;98473.78;;;17.62;48.95
21236;BME280;10775;42.678;26.324;2023-04-22T13:05:29;98468.59;;;17.76;49.91
21236;BME280;10775;42.678;26.324;2023-04-22T13:07:54;98469.25;;;17.81;47.08
21236;BME280;10775;42.678;26.324;2023-04-22T13:10:20;98474.06;;;17.90;49.37
21236;BME280;10775;42.678;26.324;2023-04-22T13:12:47;98472.09;;;17.94;49.95
21236;BME280;10775;42.678;26.324;2023-04-22T13:15:12;98465.00;;;17.94;49.11
21236;BME280;10775;42.678;26.324;2023-04-22T13:17:38;98469.53;;;17.92;48.17
21236;BME280;10775;42.678;26.324;2023-04-22T13:20:05;98465.41;;;17.87;49.45
21236;BME280;10775;42.678;26.324;2023-04-22T13:22:32;98466.06;;;17.74;49.11
21236;BME280;10775;42.678;26.324;2023-04-22T13:24:57;98468.81;;;17.71;51.53
21236;BME280;10775;42.678;26.324;2023-04-22T13:27:23;98468.81;;;17.71;54.30
21236;BME280;10775;42.678;26.324;2023-04-22T13:29:49;98464.31;;;17.73;54.13
21236;BME280;10775;42.678;26.324;2023-04-22T13:32:15;98460.75;;;17.74;53.69
21236;BME280;10775;42.678;26.324;2023-04-22T13:34:40;98466.69;;;17.79;52.38
21236;BME280;10775;42.678;26.324;2023-04-22T13:37:06;98465.75;;;17.80;52.54
21236;BME280;10775;42.678;26.324;2023-04-22T13:39:32;98466.44;;;17.84;51.16
21236;BME280;10775;42.678;26.324;2023-04-22T13:41:58;98477.31;;;17.78;52.89
21236;BME280;10775;42.678;26.324;2023-04-22T13:44:23;98480.34;;;17.70;50.17
21236;BME280;10775;42.678;26.324;2023-04-22T13:46:49;98466.19;;;17.71;49.90
21236;BME280;10775;42.678;26.324;2023-04-22T13:49:14;98477.31;;;17.78;50.28
21236;BME280;10775;42.678;26.324;2023-04-22T13:51:40;98480.28;;;17.72;52.51
21236;BME280;10775;42.678;26.324;2023-04-22T13:54:06;98489.69;;;17.60;57.40
21236;BME280;10775;42.678;26.324;2023-04-22T13:56:32;98490.63;;;17.59;53.32
21236;BME280;10775;42.678;26.324;2023-04-22T13:58:58;98482.03;;;17.71;53.27
21236;BME280;10775;42.678;26.324;2023-04-22T14:01:24;98478.81;;;17.84;54.70
21236;BME280;10775;42.678;26.324;2023-04-22T14:03:50;98482.47;;;17.81;53.90
21236;BME280;10775;42.678;26.324;2023-04-22T14:06:16;98481.75;;;17.77;55.48
21236;BME280;10775;42.678;26.324;2023-04-22T14:08:42;98484.75;;;17.54;54.58
21236;BME280;10775;42.678;26.324;2023-04-22T14:11:08;98489.91;;;17.55;57.44
21236;BME280;10775;42.678;26.324;2023-04-22T14:13:34;98488.13;;;17.56;56.23
21236;BME280;10775;42.678;26.324;2023-04-22T14:16:00;98486.19;;;17.42;57.77
21236;BME280;10775;42.678;26.324;2023-04-22T14:18:27;98493.34;;;17.40;56.84
21236;BME280;10775;42.678;26.324;2023-04-22T14:20:53;98496.47;;;17.31;55.04
21236;BME280;10775;42.678;26.324;2023-04-22T14:23:18;98502.19;;;17.22;54.58
21236;BME280;10775;42.678;26.324;2023-04-22T14:25:45;98498.22;;;17.30;57.88
21236;BME280;10775;42.678;26.324;2023-04-22T14:28:15;98506.22;;;17.11;56.36